createdAt,value
2019-05-16T00:01:09.417Z,154.90
2019-05-16T00:02:48.053Z,129.63
2019-05-16T00:04:25.252Z,138.20
2019-05-16T00:06:01.693Z,247.70
2019-05-16T00:07:39.267Z,158.97
2019-05-16T00:09:18.172Z,97.17
2019-05-16T00:10:57.953Z,37.77
2019-05-16T00:12:34.032Z,41.27
2019-05-16T00:14:11.397Z,37.47
2019-05-16T00:15:48.176Z,34.50
2019-05-16T00:17:24.904Z,30.30
2019-05-16T00:19:01.341Z,35.33
2019-05-16T00:20:38.736Z,35.23
2019-05-16T00:22:15.486Z,30.03
2019-05-16T00:23:53.006Z,22.40
2019-05-16T00:25:29.504Z,20.77
2019-05-16T00:27:08.297Z,23.10
2019-05-16T00:28:45.227Z,18.97
2019-05-16T00:30:22.668Z,21.10
2019-05-16T00:31:59.026Z,19.03
2019-05-16T00:33:38.028Z,24.57
2019-05-16T00:35:14.803Z,24.90
2019-05-16T00:36:51.906Z,35.40
2019-05-16T00:38:28.339Z,37.37
2019-05-16T00:40:08.579Z,43.03
2019-05-16T00:41:47.772Z,37.90
2019-05-16T00:43:24.461Z,54.37
2019-05-16T00:45:01.819Z,27.83
2019-05-16T00:46:39.197Z,33.53
2019-05-16T00:48:15.460Z,26.57
2019-05-16T00:49:53.200Z,18.83
2019-05-16T00:51:30.331Z,18.63
2019-05-16T00:53:09.127Z,18.80
2019-05-16T00:54:45.795Z,14.83
2019-05-16T00:56:23.739Z,14.10
2019-05-16T00:58:02.347Z,17.50
2019-05-16T00:59:42.097Z,17.13
2019-05-16T01:01:19.129Z,24.37
2019-05-16T01:02:57.836Z,26.67
2019-05-16T01:04:34.284Z,20.13
2019-05-16T01:06:19.241Z,22.87
2019-05-16T01:07:49.624Z,30.13
2019-05-16T01:09:28.241Z,24.50
2019-05-16T01:11:04.953Z,22.73
2019-05-16T01:12:42.160Z,30.70
2019-05-16T01:14:18.099Z,28.80
2019-05-16T01:15:57.768Z,32.50
2019-05-16T01:17:33.518Z,27.97
2019-05-16T01:19:10.695Z,44.57
2019-05-16T01:20:48.363Z,42.07
2019-05-16T01:22:25.767Z,39.53
2019-05-16T01:24:02.285Z,85.37
2019-05-16T01:25:39.623Z,54.43
2019-05-16T01:27:18.362Z,66.63
2019-05-16T01:28:54.878Z,69.73
2019-05-16T01:30:31.382Z,52.53
2019-05-16T01:32:08.722Z,47.47
2019-05-16T01:33:45.083Z,41.53
2019-05-16T01:35:22.247Z,35.40
2019-05-16T01:36:59.107Z,23.97
2019-05-16T01:38:38.850Z,17.90
2019-05-16T01:40:15.259Z,21.33
2019-05-16T01:41:52.841Z,37.90
2019-05-16T01:43:29.333Z,23.93
2019-05-16T01:45:09.232Z,26.53
2019-05-16T01:46:47.950Z,35.83
2019-05-16T01:48:24.423Z,23.30
2019-05-16T01:50:01.391Z,17.67
2019-05-16T01:51:38.592Z,18.57
2019-05-16T01:53:15.059Z,20.70
2019-05-16T01:54:52.184Z,27.33
2019-05-16T01:56:28.794Z,27.50
2019-05-16T01:58:07.860Z,32.07
2019-05-16T01:59:44.176Z,27.07
2019-05-16T02:01:21.569Z,38.00
2019-05-16T02:02:58.036Z,38.80
2019-05-16T02:04:35.181Z,34.23
2019-05-16T02:06:11.794Z,27.40
2019-05-16T02:07:49.159Z,34.77
2019-05-16T02:09:27.925Z,19.63
2019-05-16T02:11:04.957Z,71.83
2019-05-16T02:12:41.463Z,37.70
2019-05-16T02:14:18.577Z,21.73
2019-05-16T02:15:54.871Z,33.37
2019-05-16T02:17:31.971Z,19.27
2019-05-16T02:19:08.444Z,20.10
2019-05-16T02:20:47.858Z,21.10
2019-05-16T02:22:23.842Z,17.73
2019-05-16T02:24:02.163Z,16.40
2019-05-16T02:25:40.778Z,15.13
2019-05-16T02:27:18.196Z,15.30
2019-05-16T02:28:54.784Z,19.07
2019-05-16T02:30:31.958Z,17.40
2019-05-16T02:32:11.391Z,18.23
2019-05-16T02:33:47.142Z,21.43
2019-05-16T02:35:23.614Z,24.67
2019-05-16T02:37:18.893Z,24.50
2019-05-16T02:38:41.986Z,50.13
2019-05-16T02:40:23.559Z,93.77
2019-05-16T02:42:01.199Z,51.00
2019-05-16T02:43:41.697Z,65.37
2019-05-16T02:45:23.837Z,38.57
2019-05-16T02:46:56.116Z,40.43
2019-05-16T02:48:35.445Z,68.77
2019-05-16T02:50:12.812Z,76.90
2019-05-16T02:51:51.153Z,201.87
2019-05-16T02:53:30.698Z,62.43
2019-05-16T02:55:11.672Z,110.37
2019-05-16T02:56:46.749Z,86.20
2019-05-16T02:58:24.913Z,132.40
2019-05-16T03:00:02.380Z,141.43
2019-05-16T03:01:40.902Z,136.43
2019-05-16T03:03:17.504Z,137.23
2019-05-16T03:04:54.291Z,133.47
2019-05-16T03:06:32.408Z,221.03
2019-05-16T03:08:12.048Z,110.80
2019-05-16T03:09:51.411Z,64.80
2019-05-16T03:11:31.259Z,90.83
2019-05-16T03:13:06.406Z,37.97
2019-05-16T03:14:45.935Z,40.97
2019-05-16T03:16:24.124Z,24.43
2019-05-16T03:18:04.326Z,29.70
2019-05-16T03:19:41.742Z,26.27
2019-05-16T03:21:21.729Z,41.53
2019-05-16T03:23:02.186Z,86.00
2019-05-16T03:24:41.980Z,44.27
2019-05-16T03:26:21.056Z,74.23
2019-05-16T03:27:57.350Z,77.50
2019-05-16T03:29:33.801Z,76.23
2019-05-16T03:31:15.071Z,67.03
2019-05-16T03:32:54.186Z,176.77
2019-05-16T03:34:33.839Z,83.60
2019-05-16T03:36:07.073Z,84.33
2019-05-16T03:37:55.161Z,72.20
2019-05-16T03:39:22.491Z,102.10
2019-05-16T03:41:00.993Z,67.10
2019-05-16T03:42:37.581Z,55.27
2019-05-16T03:44:14.743Z,67.93
2019-05-16T03:45:52.437Z,41.10
2019-05-16T03:47:31.231Z,36.07
2019-05-16T03:49:11.078Z,37.40
2019-05-16T03:50:46.607Z,45.90
2019-05-16T03:52:22.977Z,29.70
2019-05-16T03:54:02.848Z,37.17
2019-05-16T03:55:40.776Z,35.10
2019-05-16T03:57:20.899Z,39.47
2019-05-16T03:58:55.283Z,47.67
2019-05-16T04:00:55.543Z,44.00
2019-05-16T04:02:32.777Z,59.23
2019-05-16T04:04:11.661Z,31.90
2019-05-16T04:05:47.943Z,55.73
2019-05-16T04:07:24.414Z,54.30
2019-05-16T04:09:01.884Z,26.40
2019-05-16T04:10:40.946Z,27.00
2019-05-16T04:12:17.565Z,28.50
2019-05-16T04:13:54.165Z,34.93
2019-05-16T04:15:31.536Z,41.23
2019-05-16T04:17:10.803Z,33.90
2019-05-16T04:18:46.931Z,44.67
2019-05-16T04:20:23.316Z,49.37
2019-05-16T04:22:01.405Z,29.20
2019-05-16T04:23:37.887Z,38.00
2019-05-16T04:25:15.164Z,86.47
2019-05-16T04:26:51.990Z,62.20
2019-05-16T04:28:31.718Z,56.53
2019-05-16T04:30:11.646Z,45.37
2019-05-16T04:31:50.683Z,62.03
2019-05-16T04:33:25.957Z,38.73
2019-05-16T04:35:03.235Z,46.70
2019-05-16T04:36:40.651Z,32.00
2019-05-16T04:38:31.726Z,37.70
2019-05-16T04:39:56.091Z,37.40
2019-05-16T04:41:33.263Z,40.77
2019-05-16T04:43:11.396Z,38.00
2019-05-16T04:44:51.693Z,39.43
2019-05-16T04:46:31.390Z,32.13
2019-05-16T04:48:07.403Z,46.47
2019-05-16T04:49:44.557Z,47.80
2019-05-16T04:51:22.126Z,45.30
2019-05-16T04:53:01.419Z,47.63
2019-05-16T04:54:36.967Z,38.80
2019-05-16T04:56:14.144Z,29.03
2019-05-16T04:57:51.248Z,27.67
2019-05-16T04:59:31.145Z,32.50
2019-05-16T05:01:07.392Z,35.10
2019-05-16T05:02:44.864Z,34.83
2019-05-16T05:04:21.538Z,30.20
2019-05-16T05:06:01.204Z,27.03
2019-05-16T05:07:36.757Z,28.67
2019-05-16T05:09:13.828Z,28.10
2019-05-16T05:10:51.407Z,29.33
2019-05-16T05:12:31.163Z,31.97
2019-05-16T05:14:06.604Z,33.63
2019-05-16T05:15:43.872Z,37.67
2019-05-16T05:17:21.088Z,32.33
2019-05-16T05:19:00.380Z,33.57
2019-05-16T05:20:36.970Z,32.03
2019-05-16T05:22:15.993Z,148.90
2019-05-16T05:23:53.419Z,49.10
2019-05-16T05:25:32.233Z,46.67
2019-05-16T05:27:10.471Z,33.97
2019-05-16T05:28:47.751Z,33.63
2019-05-16T05:30:24.223Z,32.70
2019-05-16T05:32:04.190Z,32.40
2019-05-16T05:33:41.724Z,32.93
2019-05-16T05:35:20.637Z,34.60
2019-05-16T05:36:57.208Z,33.47
2019-05-16T05:38:34.844Z,34.67
2019-05-16T05:40:13.346Z,36.53
2019-05-16T05:41:50.635Z,27.43
2019-05-16T05:43:27.107Z,31.97
2019-05-16T05:45:04.461Z,31.00
2019-05-16T05:46:41.386Z,33.10
2019-05-16T05:48:21.180Z,32.40
2019-05-16T05:49:57.652Z,29.67
2019-05-16T05:51:34.831Z,31.57
2019-05-16T05:53:11.275Z,32.57
2019-05-16T05:54:50.285Z,35.93
2019-05-16T05:56:26.972Z,29.53
2019-05-16T05:58:04.423Z,35.27
2019-05-16T05:59:41.773Z,55.37
2019-05-16T06:01:20.452Z,33.87
2019-05-16T06:02:57.343Z,38.33
2019-05-16T06:04:34.476Z,43.03
2019-05-16T06:06:11.011Z,41.80
2019-05-16T06:07:48.189Z,46.43
2019-05-16T06:09:29.425Z,38.50
2019-05-16T06:11:04.177Z,38.90
2019-05-16T06:12:41.880Z,42.20
2019-05-16T06:14:21.206Z,43.50
2019-05-16T06:16:00.030Z,40.67
2019-05-16T06:17:39.999Z,59.33
2019-05-16T06:19:15.759Z,50.60
2019-05-16T06:20:52.963Z,52.40
2019-05-16T06:22:29.982Z,71.03
2019-05-16T06:24:07.368Z,55.63
2019-05-16T06:25:43.739Z,49.90
2019-05-16T06:27:21.112Z,53.43
2019-05-16T06:29:00.707Z,47.13
2019-05-16T06:30:40.628Z,43.60
2019-05-16T06:32:16.884Z,43.90
2019-05-16T06:33:54.459Z,39.70
2019-05-16T06:35:30.916Z,29.80
2019-05-16T06:37:09.827Z,26.67
2019-05-16T06:38:49.753Z,30.50
2019-05-16T06:40:25.304Z,34.13
2019-05-16T06:42:01.966Z,28.63
2019-05-16T06:43:40.042Z,31.67
2019-05-16T06:45:17.051Z,26.63
2019-05-16T06:47:08.405Z,25.97
2019-05-16T06:48:32.385Z,41.27
2019-05-16T06:50:11.368Z,51.37
2019-05-16T06:51:47.902Z,35.60
2019-05-16T06:53:25.176Z,25.33
2019-05-16T06:55:01.785Z,26.10
2019-05-16T06:56:40.084Z,20.47
2019-05-16T06:58:21.756Z,22.73
2019-05-16T06:59:57.226Z,24.97
2019-05-16T07:01:34.510Z,22.90
2019-05-16T07:03:12.677Z,22.73
2019-05-16T07:04:50.630Z,21.37
2019-05-16T07:06:48.465Z,19.67
2019-05-16T07:08:05.526Z,19.23
2019-05-16T07:09:56.089Z,18.87
2019-05-16T07:11:21.958Z,19.93
2019-05-16T07:13:00.703Z,19.30
2019-05-16T07:14:37.562Z,20.07
2019-05-16T07:16:14.000Z,19.83
2019-05-16T07:17:51.350Z,22.73
2019-05-16T07:19:29.996Z,20.83
2019-05-16T07:21:06.980Z,19.23
2019-05-16T07:22:44.405Z,17.97
2019-05-16T07:24:21.767Z,21.07
2019-05-16T07:26:00.589Z,14.93
2019-05-16T07:27:51.098Z,13.90
2019-05-16T07:29:27.701Z,17.73
2019-05-16T07:31:14.979Z,12.90
2019-05-16T07:32:43.182Z,13.10
2019-05-16T07:34:21.084Z,13.83
2019-05-16T07:36:00.369Z,12.63
2019-05-16T07:37:36.916Z,14.23
2019-05-16T07:39:13.938Z,12.77
2019-05-16T07:40:51.151Z,14.53
2019-05-16T07:42:30.753Z,13.73
2019-05-16T07:44:06.919Z,13.23
2019-05-16T07:45:44.303Z,13.67
2019-05-16T07:47:20.760Z,13.40
2019-05-16T07:49:00.907Z,14.37
2019-05-16T07:50:36.633Z,14.27
2019-05-16T07:52:13.921Z,14.80
2019-05-16T07:53:50.715Z,16.13
2019-05-16T07:55:28.016Z,14.87
2019-05-16T07:57:16.220Z,15.40
2019-05-16T07:58:43.557Z,13.97
2019-05-16T08:00:21.889Z,12.67
2019-05-16T08:02:00.527Z,12.23
2019-05-16T08:03:36.927Z,11.50
2019-05-16T08:05:14.375Z,13.37
2019-05-16T08:06:50.884Z,14.83
2019-05-16T08:08:31.002Z,13.93
2019-05-16T08:10:11.177Z,16.60
2019-05-16T08:11:50.155Z,14.17
2019-05-16T08:13:26.417Z,14.70
2019-05-16T08:15:03.702Z,15.03
2019-05-16T08:16:41.151Z,15.70
2019-05-16T08:18:21.423Z,14.70
2019-05-16T08:19:59.863Z,14.97
2019-05-16T08:21:36.307Z,15.43
2019-05-16T08:23:12.846Z,15.17
2019-05-16T08:24:50.516Z,16.73
2019-05-16T08:26:27.216Z,14.20
2019-05-16T08:28:04.503Z,14.27
2019-05-16T08:29:40.868Z,16.03
2019-05-16T08:31:21.887Z,19.40
2019-05-16T08:33:01.387Z,18.40
2019-05-16T08:34:40.889Z,13.53
2019-05-16T08:36:20.115Z,13.73
2019-05-16T08:37:56.756Z,11.53
2019-05-16T08:39:33.929Z,12.57
2019-05-16T08:41:16.313Z,12.23
2019-05-16T08:42:51.979Z,14.63
2019-05-16T08:44:31.950Z,16.03
2019-05-16T08:46:07.301Z,12.03
2019-05-16T08:47:43.754Z,13.93
2019-05-16T08:49:22.215Z,12.80
2019-05-16T08:51:02.895Z,14.87
2019-05-16T08:52:37.803Z,14.17
2019-05-16T08:54:14.258Z,19.43
2019-05-16T08:55:51.655Z,16.27
2019-05-16T08:57:32.284Z,15.00
2019-05-16T08:59:06.921Z,13.77
2019-05-16T09:00:43.751Z,13.70
2019-05-16T09:02:22.907Z,11.37
2019-05-16T09:04:01.499Z,12.87
2019-05-16T09:05:37.940Z,12.47
2019-05-16T09:07:14.439Z,13.70
2019-05-16T09:08:51.603Z,16.90
2019-05-16T09:10:55.735Z,13.53
2019-05-16T09:12:08.044Z,13.83
2019-05-16T09:13:44.518Z,13.47
2019-05-16T09:15:22.108Z,17.57
2019-05-16T09:16:58.560Z,13.77
2019-05-16T09:18:44.780Z,12.87
2019-05-16T09:20:17.388Z,12.10
2019-05-16T09:21:54.206Z,11.47
2019-05-16T09:23:30.753Z,13.27
2019-05-16T09:25:08.992Z,10.67
2019-05-16T09:26:47.418Z,12.30
2019-05-16T09:28:28.132Z,11.97
2019-05-16T09:30:03.208Z,14.47
2019-05-16T09:31:40.934Z,11.07
2019-05-16T09:33:17.904Z,12.97
2019-05-16T09:34:57.209Z,12.03
2019-05-16T09:36:33.508Z,12.97
2019-05-16T09:38:10.777Z,10.93
2019-05-16T09:39:48.229Z,12.37
2019-05-16T09:41:28.761Z,12.20
2019-05-16T09:43:07.451Z,11.10
2019-05-16T09:44:43.815Z,15.83
2019-05-16T09:46:20.518Z,14.37
2019-05-16T09:47:58.263Z,15.93
2019-05-16T09:49:37.041Z,11.60
2019-05-16T09:51:13.857Z,10.27
2019-05-16T09:52:53.494Z,10.20
2019-05-16T09:54:32.043Z,9.60
2019-05-16T09:56:08.855Z,10.40
2019-05-16T09:57:46.831Z,10.17
2019-05-16T09:59:23.669Z,8.97
2019-05-16T10:01:01.118Z,10.10
2019-05-16T10:02:38.919Z,10.23
2019-05-16T10:04:17.423Z,10.37
2019-05-16T10:05:56.944Z,11.33
2019-05-16T10:07:33.150Z,9.80
2019-05-16T10:09:09.743Z,10.10
2019-05-16T10:10:47.483Z,10.47
2019-05-16T10:12:26.193Z,8.60
2019-05-16T10:14:07.268Z,10.87
2019-05-16T10:15:47.048Z,8.57
2019-05-16T10:17:22.828Z,8.37
2019-05-16T10:19:00.164Z,10.83
2019-05-16T10:20:37.865Z,11.90
2019-05-16T10:22:17.093Z,8.67
2019-05-16T10:23:53.745Z,10.20
2019-05-16T10:25:32.048Z,10.97
2019-05-16T10:27:08.785Z,9.40
2019-05-16T10:28:46.837Z,8.33
2019-05-16T10:30:23.967Z,9.60
2019-05-16T10:32:01.223Z,7.40
2019-05-16T10:33:38.895Z,9.97
2019-05-16T10:35:17.074Z,12.00
2019-05-16T10:36:53.577Z,11.23
2019-05-16T10:38:30.741Z,11.50
2019-05-16T10:40:10.088Z,10.87
2019-05-16T10:41:47.267Z,10.67
2019-05-16T10:43:26.525Z,6.87
2019-05-16T10:45:04.602Z,9.70
2019-05-16T10:46:41.111Z,8.60
2019-05-16T10:48:18.769Z,9.20
2019-05-16T10:49:56.523Z,9.20
2019-05-16T10:51:33.867Z,9.03
2019-05-16T10:53:28.338Z,11.33
2019-05-16T10:54:57.452Z,9.17
2019-05-16T10:56:28.297Z,10.90
2019-05-16T10:58:07.374Z,10.37
2019-05-16T11:00:04.245Z,12.13
2019-05-16T11:01:27.811Z,10.43
2019-05-16T11:03:01.118Z,9.23
2019-05-16T11:04:53.911Z,10.40
2019-05-16T11:06:25.399Z,9.30
2019-05-16T11:07:57.390Z,9.37
2019-05-16T11:09:34.350Z,9.53
2019-05-16T11:11:11.721Z,12.53
2019-05-16T11:12:54.802Z,11.27
2019-05-16T11:14:28.209Z,14.50
2019-05-16T11:16:07.075Z,11.60
2019-05-16T11:17:43.984Z,11.87
2019-05-16T11:19:24.421Z,10.17
2019-05-16T11:20:59.468Z,10.93
2019-05-16T11:22:37.246Z,14.03
2019-05-16T11:24:14.734Z,10.23
2019-05-16T11:25:51.352Z,10.13
2019-05-16T11:27:28.613Z,10.33
2019-05-16T11:29:07.473Z,9.80
2019-05-16T11:30:44.291Z,11.10
2019-05-16T11:32:20.835Z,12.80
2019-05-16T11:33:58.333Z,11.10
2019-05-16T11:35:37.832Z,11.30
2019-05-16T11:37:17.532Z,11.30
2019-05-16T11:38:57.311Z,9.47
2019-05-16T11:40:32.003Z,12.13
2019-05-16T11:42:08.608Z,12.43
2019-05-16T11:43:47.354Z,12.90
2019-05-16T11:45:24.408Z,14.17
2019-05-16T11:47:01.664Z,10.13
2019-05-16T11:48:38.493Z,10.60
2019-05-16T11:50:17.530Z,10.93
2019-05-16T11:51:54.555Z,13.50
2019-05-16T11:53:31.823Z,14.53
2019-05-16T11:55:09.059Z,11.60
2019-05-16T11:56:46.600Z,14.17
2019-05-16T11:58:23.037Z,12.77
2019-05-16T12:00:00.204Z,12.00
2019-05-16T12:01:37.046Z,12.47
2019-05-16T12:03:16.916Z,13.03
2019-05-16T12:04:54.314Z,13.17
2019-05-16T12:06:31.555Z,11.90
2019-05-16T12:08:08.158Z,12.53
2019-05-16T12:09:50.631Z,11.60
2019-05-16T12:11:23.718Z,12.17
2019-05-16T12:13:01.087Z,12.03
2019-05-16T12:14:37.640Z,13.40
2019-05-16T12:16:18.523Z,13.03
2019-05-16T12:18:00.760Z,13.63
2019-05-16T12:19:35.525Z,13.40
2019-05-16T12:21:10.652Z,11.70
2019-05-16T12:22:48.072Z,14.20
2019-05-16T12:24:33.148Z,14.27
2019-05-16T12:26:03.887Z,14.73
2019-05-16T12:27:42.618Z,12.40
2019-05-16T12:29:20.093Z,13.07
2019-05-16T12:30:56.479Z,12.30
2019-05-16T12:32:33.615Z,10.50
2019-05-16T12:34:10.321Z,17.70
2019-05-16T12:35:47.777Z,13.97
2019-05-16T12:37:24.362Z,12.93
2019-05-16T12:39:02.531Z,9.03
2019-05-16T12:40:39.251Z,10.63
2019-05-16T12:42:17.413Z,9.53
2019-05-16T12:43:57.750Z,11.47
2019-05-16T12:45:34.274Z,10.23
2019-05-16T12:47:10.798Z,11.77
2019-05-16T12:48:48.239Z,10.40
2019-05-16T12:50:24.170Z,8.80
2019-05-16T12:52:01.727Z,7.73
2019-05-16T12:53:38.156Z,8.47
2019-05-16T12:55:16.598Z,12.33
2019-05-16T12:56:53.156Z,8.43
2019-05-16T12:58:37.869Z,10.07
2019-05-16T13:00:18.717Z,12.00
2019-05-16T13:01:51.904Z,11.37
2019-05-16T13:03:28.366Z,14.27
2019-05-16T13:05:09.423Z,15.07
2019-05-16T13:06:47.115Z,8.97
2019-05-16T13:08:23.523Z,9.93
2019-05-16T13:10:00.998Z,12.50
2019-05-16T13:11:37.902Z,10.27
2019-05-16T13:13:17.751Z,11.97
2019-05-16T13:14:53.338Z,11.53
2019-05-16T13:16:30.366Z,9.47
2019-05-16T13:18:07.901Z,9.00
2019-05-16T13:19:48.278Z,11.23
2019-05-16T13:21:23.903Z,11.53
2019-05-16T13:23:01.215Z,9.47
2019-05-16T13:24:38.783Z,10.70
2019-05-16T13:26:17.661Z,10.00
2019-05-16T13:27:54.705Z,9.13
2019-05-16T13:29:32.448Z,9.00
2019-05-16T13:31:09.376Z,10.00
2019-05-16T13:32:47.312Z,13.03
2019-05-16T13:34:23.946Z,8.03
2019-05-16T13:36:01.721Z,7.73
2019-05-16T13:37:38.657Z,7.80
2019-05-16T13:39:17.182Z,7.00
2019-05-16T13:40:53.859Z,9.07
2019-05-16T13:42:31.494Z,8.60
2019-05-16T13:44:18.688Z,7.93
2019-05-16T13:45:47.772Z,9.10
2019-05-16T13:47:26.660Z,8.67
2019-05-16T13:49:03.305Z,10.13
2019-05-16T13:50:40.217Z,8.50
2019-05-16T13:52:17.892Z,9.63
2019-05-16T13:53:54.826Z,15.20
2019-05-16T13:55:32.413Z,12.67
2019-05-16T13:57:08.948Z,7.67
2019-05-16T13:58:46.955Z,8.30
2019-05-16T14:00:24.027Z,10.63
2019-05-16T14:02:02.402Z,9.20
2019-05-16T14:03:38.869Z,7.03
2019-05-16T14:05:19.041Z,6.97
2019-05-16T14:06:58.698Z,11.73
2019-05-16T14:08:34.347Z,10.17
2019-05-16T14:10:11.460Z,26.47
2019-05-16T14:11:48.993Z,13.07
2019-05-16T14:13:27.911Z,6.47
2019-05-16T14:15:08.240Z,8.37
2019-05-16T14:16:46.961Z,8.17
2019-05-16T14:18:27.094Z,8.27
2019-05-16T14:20:02.077Z,10.27
2019-05-16T14:21:39.183Z,10.60
2019-05-16T14:23:17.688Z,10.43
2019-05-16T14:24:56.916Z,9.13
2019-05-16T14:26:32.559Z,8.63
2019-05-16T14:28:09.838Z,14.13
2019-05-16T14:29:47.655Z,10.50
2019-05-16T14:31:25.482Z,8.80
2019-05-16T14:33:02.894Z,16.30
2019-05-16T14:34:40.803Z,7.70
2019-05-16T14:36:17.256Z,9.37
2019-05-16T14:37:57.421Z,7.13
2019-05-16T14:39:32.640Z,9.07
2019-05-16T14:41:10.243Z,7.27
2019-05-16T14:42:47.925Z,10.40
2019-05-16T14:44:28.506Z,8.13
2019-05-16T14:46:07.026Z,7.43
2019-05-16T14:47:42.760Z,6.90
2019-05-16T14:49:19.427Z,8.23
2019-05-16T14:50:57.455Z,6.60
2019-05-16T14:52:36.427Z,5.77
2019-05-16T14:54:14.259Z,6.17
2019-05-16T14:55:50.688Z,7.53
2019-05-16T14:57:28.431Z,7.57
2019-05-16T14:59:04.382Z,5.97
2019-05-16T15:00:41.660Z,7.00
2019-05-16T15:02:18.565Z,6.20
2019-05-16T15:03:58.234Z,6.73
2019-05-16T15:05:41.836Z,7.20
2019-05-16T15:07:13.765Z,7.40
2019-05-16T15:08:51.277Z,6.80
2019-05-16T15:10:28.831Z,6.57
2019-05-16T15:12:06.897Z,5.80
2019-05-16T15:13:44.509Z,6.37
2019-05-16T15:15:24.741Z,6.63
2019-05-16T15:17:00.856Z,7.27
2019-05-16T15:18:38.567Z,7.57
2019-05-16T15:20:18.176Z,9.97
2019-05-16T15:21:57.060Z,9.37
2019-05-16T15:23:33.780Z,6.57
2019-05-16T15:25:10.872Z,8.73
2019-05-16T15:26:48.424Z,10.23
2019-05-16T15:28:29.653Z,6.80
2019-05-16T15:30:06.957Z,6.47
2019-05-16T15:31:43.174Z,7.50
2019-05-16T15:33:20.510Z,9.90
2019-05-16T15:34:57.268Z,8.77
2019-05-16T15:36:37.128Z,7.60
2019-05-16T15:38:12.865Z,7.80
2019-05-16T15:39:50.012Z,11.07
2019-05-16T15:41:27.228Z,7.80
2019-05-16T15:43:07.482Z,6.93
2019-05-16T15:44:42.766Z,8.73
2019-05-16T15:46:20.107Z,9.47
2019-05-16T15:47:59.847Z,9.20
2019-05-16T15:49:37.691Z,18.07
2019-05-16T15:51:16.604Z,7.50
2019-05-16T15:52:53.866Z,6.07
2019-05-16T15:54:32.799Z,7.43
2019-05-16T15:56:10.801Z,6.17
2019-05-16T15:57:47.757Z,9.93
2019-05-16T15:59:27.219Z,7.30
2019-05-16T16:01:07.099Z,9.07
2019-05-16T16:02:44.171Z,8.13
2019-05-16T16:04:20.586Z,8.50
2019-05-16T16:05:58.026Z,7.17
2019-05-16T16:07:34.318Z,6.33
2019-05-16T16:09:11.551Z,5.60
2019-05-16T16:10:48.277Z,9.33
2019-05-16T16:12:26.629Z,8.30
2019-05-16T16:14:03.392Z,7.20
2019-05-16T16:15:50.291Z,7.90
2019-05-16T16:17:20.440Z,6.57
2019-05-16T16:18:57.576Z,8.87
2019-05-16T16:20:33.982Z,7.97
2019-05-16T16:22:11.301Z,6.77
2019-05-16T16:23:47.906Z,8.20
2019-05-16T16:25:26.813Z,6.80
2019-05-16T16:27:04.490Z,8.63
2019-05-16T16:28:41.631Z,8.43
2019-05-16T16:30:18.776Z,6.57
2019-05-16T16:31:56.879Z,6.23
2019-05-16T16:33:34.306Z,8.93
2019-05-16T16:35:14.016Z,7.47
2019-05-16T16:36:50.022Z,7.83
2019-05-16T16:38:27.732Z,5.60
2019-05-16T16:40:11.408Z,5.93
2019-05-16T16:41:47.863Z,9.63
2019-05-16T16:43:24.448Z,13.40
2019-05-16T16:45:01.843Z,7.33
2019-05-16T16:46:39.433Z,8.27
2019-05-16T16:48:17.324Z,12.97
2019-05-16T16:49:53.115Z,8.43
2019-05-16T16:51:30.223Z,10.20
2019-05-16T16:53:07.264Z,11.47
2019-05-16T16:54:47.435Z,9.93
2019-05-16T16:56:23.075Z,12.23
2019-05-16T16:58:00.254Z,8.10
2019-05-16T16:59:37.416Z,7.77
2019-05-16T17:01:17.187Z,9.97
2019-05-16T17:03:03.186Z,11.77
2019-05-16T17:04:32.565Z,8.90
2019-05-16T17:06:09.094Z,22.20
2019-05-16T17:07:48.733Z,15.57
2019-05-16T17:09:26.984Z,35.10
2019-05-16T17:11:06.766Z,30.97
2019-05-16T17:12:43.004Z,22.37
2019-05-16T17:14:20.278Z,21.83
2019-05-16T17:15:57.323Z,18.27
2019-05-16T17:17:37.205Z,20.30
2019-05-16T17:19:12.814Z,24.47
2019-05-16T17:20:50.136Z,18.00
2019-05-16T17:22:26.732Z,18.40
2019-05-16T17:24:06.280Z,16.13
2019-05-16T17:25:42.590Z,17.80
2019-05-16T17:27:19.786Z,16.67
2019-05-16T17:28:57.105Z,20.07
2019-05-16T17:30:36.331Z,17.53
2019-05-16T17:32:12.875Z,16.33
2019-05-16T17:33:50.471Z,20.63
2019-05-16T17:35:29.585Z,18.47
2019-05-16T17:37:09.492Z,19.57
2019-05-16T17:38:46.641Z,17.07
2019-05-16T17:40:24.457Z,23.97
2019-05-16T17:42:01.299Z,18.33
2019-05-16T17:43:41.295Z,19.03
2019-05-16T17:45:18.485Z,20.17
2019-05-16T17:46:57.581Z,18.47
2019-05-16T17:48:33.778Z,21.80
2019-05-16T17:50:12.324Z,19.53
2019-05-16T17:51:48.861Z,21.57
2019-05-16T17:53:26.643Z,18.03
2019-05-16T17:55:03.586Z,19.13
2019-05-16T17:56:40.854Z,15.20
2019-05-16T17:58:19.679Z,16.07
2019-05-16T17:59:57.789Z,15.87
2019-05-16T18:01:34.316Z,20.87
2019-05-16T18:03:11.618Z,17.87
2019-05-16T18:04:48.174Z,17.67
2019-05-16T18:06:27.184Z,17.00
2019-05-16T18:08:02.950Z,18.30
2019-05-16T18:09:42.979Z,21.63
2019-05-16T18:11:18.809Z,22.50
2019-05-16T18:12:56.850Z,17.80
2019-05-16T18:14:33.606Z,19.47
2019-05-16T18:16:10.715Z,20.37
2019-05-16T18:17:47.255Z,20.00
2019-05-16T18:19:26.414Z,23.77
2019-05-16T18:21:03.030Z,25.27
2019-05-16T18:22:40.382Z,25.83
2019-05-16T18:24:16.924Z,28.87
2019-05-16T18:25:54.096Z,24.37
2019-05-16T18:27:30.486Z,34.80
2019-05-16T18:29:07.864Z,37.50
2019-05-16T18:30:44.367Z,33.83
2019-05-16T18:32:22.601Z,28.80
2019-05-16T18:33:59.537Z,28.33
2019-05-16T18:35:37.783Z,31.83
2019-05-16T18:37:14.158Z,26.97
2019-05-16T18:38:51.460Z,26.07
2019-05-16T18:40:28.268Z,28.33
2019-05-16T18:42:05.813Z,28.33
2019-05-16T18:43:42.181Z,26.20
2019-05-16T18:45:21.543Z,27.87
2019-05-16T18:47:07.014Z,24.93
2019-05-16T18:48:37.722Z,23.30
2019-05-16T18:50:17.823Z,24.50
2019-05-16T18:51:53.893Z,21.87
2019-05-16T18:53:30.716Z,18.07
2019-05-16T18:55:09.584Z,21.40
2019-05-16T18:56:47.324Z,24.20
2019-05-16T18:58:26.946Z,20.87
2019-05-16T19:00:07.011Z,21.20
2019-05-16T19:01:43.794Z,20.17
2019-05-16T19:03:20.809Z,18.67
2019-05-16T19:04:58.106Z,15.90
2019-05-16T19:06:37.064Z,18.00
2019-05-16T19:08:16.200Z,19.03
2019-05-16T19:09:52.336Z,19.93
2019-05-16T19:11:29.982Z,20.40
2019-05-16T19:13:08.176Z,20.53
2019-05-16T19:14:47.249Z,17.93
2019-05-16T19:16:26.192Z,17.73
2019-05-16T19:18:03.139Z,18.13
2019-05-16T19:19:39.776Z,18.27
2019-05-16T19:21:17.967Z,19.73
2019-05-16T19:22:54.417Z,31.50
2019-05-16T19:24:31.952Z,25.67
2019-05-16T19:26:08.496Z,34.70
2019-05-16T19:27:46.608Z,30.97
2019-05-16T19:29:23.126Z,33.07
2019-05-16T19:31:01.272Z,26.63
2019-05-16T19:32:39.616Z,21.23
2019-05-16T19:34:17.048Z,26.20
2019-05-16T19:35:56.504Z,26.47
2019-05-16T19:37:37.914Z,22.50
2019-05-16T19:39:11.782Z,19.23
2019-05-16T19:40:49.055Z,18.03
2019-05-16T19:42:26.633Z,25.67
2019-05-16T19:44:06.778Z,24.33
2019-05-16T19:45:43.329Z,25.83
2019-05-16T19:47:32.985Z,24.57
2019-05-16T19:48:58.504Z,28.07
2019-05-16T19:50:37.253Z,23.23
2019-05-16T19:52:16.266Z,24.37
2019-05-16T19:53:52.638Z,23.53
2019-05-16T19:55:29.554Z,21.70
2019-05-16T19:57:07.427Z,21.83
2019-05-16T19:58:46.763Z,24.07
2019-05-16T20:00:26.613Z,26.00
2019-05-16T20:02:03.777Z,27.80
2019-05-16T20:03:41.055Z,30.87
2019-05-16T20:05:18.070Z,30.97
2019-05-16T20:06:56.698Z,25.77
2019-05-16T20:08:33.171Z,25.40
2019-05-16T20:10:11.559Z,27.23
2019-05-16T20:11:49.723Z,25.23
2019-05-16T20:13:27.560Z,22.83
2019-05-16T20:15:10.975Z,22.27
2019-05-16T20:16:47.155Z,21.00
2019-05-16T20:18:23.875Z,26.23
2019-05-16T20:20:02.048Z,23.47
2019-05-16T20:21:40.465Z,25.13
2019-05-16T20:23:18.706Z,23.53
2019-05-16T20:24:56.323Z,25.47
2019-05-16T20:26:33.488Z,30.00
2019-05-16T20:28:10.137Z,32.00
2019-05-16T20:29:47.502Z,27.90
2019-05-16T20:31:24.225Z,30.47
2019-05-16T20:33:01.507Z,30.67
2019-05-16T20:34:38.077Z,29.77
2019-05-16T20:36:17.342Z,30.20
2019-05-16T20:37:53.322Z,27.73
2019-05-16T20:39:32.031Z,32.20
2019-05-16T20:41:08.565Z,25.67
2019-05-16T20:42:47.520Z,28.67
2019-05-16T20:44:26.600Z,31.27
2019-05-16T20:46:03.289Z,30.43
2019-05-16T20:47:39.799Z,26.37
2019-05-16T20:49:16.968Z,29.27
2019-05-16T20:50:53.410Z,29.47
2019-05-16T20:52:31.511Z,27.33
2019-05-16T20:54:08.349Z,29.90
2019-05-16T20:55:49.562Z,31.13
2019-05-16T20:57:26.544Z,30.63
2019-05-16T20:59:06.885Z,35.27
2019-05-16T21:00:43.616Z,31.37
2019-05-16T21:02:21.081Z,31.73
2019-05-16T21:03:58.452Z,30.20
2019-05-16T21:05:38.181Z,32.10